Last 6 Hours

AM-Roundhouse Btm 6950'

15 Minute Data | America/Los_Angeles
as of 5/5/26 4:02 AM PDT
Date & Time Temp (°F) RH (%) Dew Pt (°F) Wet Bulb (°F) Wind Dir (°) Wind Spd (mph) Wind Gust (mph) WindChill (°F) Barometric Press (inHg) New Snow (HN) (in) Snow Depth (HS) (in) Latest Rain (In) Daily Rain (In) Daily Min Temp (°F) Daily Max Temp (°F)
5/5/26 - 0400 34.1 98 33.6 33.8 SSW | 208 0.1 0.4 34.1 29.93 0.0 2.8 0.00 0.01 32.6 34.3
5/5/26 - 0345 34.0 98 33.4 33.7 SSW | 203 0.1 0.3 34.0 29.93 0.0 2.9 0.00 0.01 32.6 34.3
5/5/26 - 0330 34.1 98 33.6 33.9 SSW | 207 0.1 0.4 34.1 29.93 0.0 2.9 0.00 0.01 32.6 34.3
5/5/26 - 0315 34.1 98 33.6 33.9 SW | 218 0.1 0.4 34.1 29.92 0.0 2.8 0.00 0.01 32.6 34.3
5/5/26 - 0300 34.1 98 33.6 33.8 S | 178 0.1 0.4 34.1 29.93 0.0 3.0 0.00 0.01 32.6 34.1
5/5/26 - 0245 33.7 98 33.2 33.5 SW | 223 0.1 0.4 33.7 29.93 0.0 3.1 0.00 0.01 32.6 34.0
5/5/26 - 0230 33.8 98 33.3 33.6 SW | 219 0.1 0.3 33.8 29.94 0.0 3.5 0.00 0.01 32.6 34.0
5/5/26 - 0215 33.8 98 33.3 33.6 NNW | 340 0.1 0.4 33.8 29.94 0.0 2.3 0.00 0.01 32.6 34.0
5/5/26 - 0200 33.9 98 33.5 33.7 S | 190 0.1 0.3 33.9 29.94 0.0 2.1 0.00 0.01 32.6 34.0
5/5/26 - 0145 33.7 98 33.3 33.5 S | 187 0.1 0.3 33.7 29.93 0.0 2.3 0.00 0.01 32.6 33.8
5/5/26 - 0130 33.7 98 33.3 33.5 S | 175 0.1 0.4 33.7 29.92 0.0 2.6 0.01 0.01 32.6 33.8
5/5/26 - 0115 32.8 98 32.4 32.6 SE | 131 0.1 0.4 32.8 29.95 0.0 2.9 0.00 0.00 32.6 33.8
5/5/26 - 0100 32.6 98 32.1 32.4 SE | 137 0.1 0.4 32.6 29.95 0.0 2.4 0.00 0.00 32.6 33.8
5/5/26 - 0045 32.8 98 32.1 32.4 NW | 314 0.1 0.4 32.8 29.95 0.0 2.4 0.00 0.00 32.6 33.8
5/5/26 - 0030 33.6 98 33.2 33.4 SSE | 164 0.1 0.4 33.6 29.95 0.0 3.0 0.00 0.00 32.6 33.6
5/5/26 - 0015 32.7 98 32.3 32.5 NW | 319 0.1 0.4 32.7 29.94 0.0 3.0 0.00 0.00 32.6 32.9
5/5/26 - 0000 32.9 98 32.6 32.7 SE | 143 0.1 0.4 32.9 29.94 0.0 2.9 0.00 0.62 32.0 43.0
5/4/26 - 2345 32.6 98 32.2 32.4 S | 191 0.1 0.4 32.6 29.94 0.0 2.8 0.00 0.62 32.0 43.0
5/4/26 - 2330 32.6 98 32.2 32.4 W | 277 0.1 0.4 32.6 29.94 0.0 2.7 0.00 0.62 32.0 43.0
5/4/26 - 2315 32.7 98 32.4 32.6 S | 173 0.1 0.4 32.7 29.95 0.0 2.7 0.00 0.62 32.0 43.0
5/4/26 - 2300 32.5 98 32.1 32.3 SSW | 200 0.1 0.4 32.5 29.94 0.0 3.1 0.01 0.62 32.0 43.0
5/4/26 - 2245 32.3 98 31.9 32.1 WNW | 293 0.1 0.4 32.3 29.95 0.0 3.0 0.00 0.61 32.0 43.0
5/4/26 - 2230 32.2 98 31.7 32.0 SSE | 150 0.1 0.4 32.2 29.94 0.0 2.9 0.00 0.61 32.0 43.0
5/4/26 - 2215 32.1 98 31.5 31.8 N | 360 0.1 0.4 32.1 29.94 0.0 2.8 0.00 0.61 32.0 43.0
Max 34.1 98 33.6 33.9 - 0.1 0.4 34.1 29.95 0.0 3.5 0.01 0.62 32.6 43.0
Avg 33.2 98 32.8 33.0 - 0.1 0.3 33.2 29.94 0.0 2.8 0.00 - - -
Min 32.1 98 31.5 31.8 - 0.1 0.3 32.1 29.92 0.0 2.1 0.00 0.00 32.0 32.9
Total - - - - - - - - - - - 0.02 - - -